createdAt,value
2018-04-18T00:00:51.947Z,73.29
2018-04-18T00:03:19.631Z,74.02
2018-04-18T00:05:47.309Z,74.20
2018-04-18T00:08:14.997Z,74.83
2018-04-18T00:10:42.683Z,75.12
2018-04-18T00:13:10.349Z,75.42
2018-04-18T00:15:37.980Z,75.71
2018-04-18T00:18:05.605Z,75.53
2018-04-18T00:20:33.405Z,75.35
2018-04-18T00:23:01.004Z,74.99
2018-04-18T00:25:28.690Z,74.76
2018-04-18T00:27:56.307Z,74.65
2018-04-18T00:30:23.938Z,74.38
2018-04-18T00:32:51.621Z,74.16
2018-04-18T00:35:19.364Z,74.37
2018-04-18T00:37:47.009Z,74.24
2018-04-18T00:40:14.661Z,74.43
2018-04-18T00:42:42.296Z,74.35
2018-04-18T00:45:10.012Z,74.27
2018-04-18T00:47:37.840Z,74.70
2018-04-18T00:50:05.561Z,74.77
2018-04-18T00:52:33.206Z,74.43
2018-04-18T00:55:00.894Z,74.23
2018-04-18T00:57:28.621Z,74.41
2018-04-18T00:59:58.804Z,74.62
2018-04-18T01:02:26.522Z,74.86
2018-04-18T01:04:54.212Z,74.82
2018-04-18T01:07:21.849Z,74.64
2018-04-18T01:09:49.541Z,74.09
2018-04-18T01:12:17.444Z,73.39
2018-04-18T01:14:45.134Z,72.98
2018-04-18T01:17:12.841Z,73.08
2018-04-18T01:19:40.460Z,73.32
2018-04-18T01:22:08.201Z,73.35
2018-04-18T01:24:35.977Z,73.26
2018-04-18T01:27:03.639Z,73.71
2018-04-18T01:29:31.297Z,74.54
2018-04-18T01:31:58.976Z,74.98
2018-04-18T01:34:26.637Z,75.92
2018-04-18T01:36:54.419Z,76.69
2018-04-18T01:39:22.057Z,77.47
2018-04-18T01:41:49.861Z,77.83
2018-04-18T01:44:17.492Z,77.80
2018-04-18T01:46:45.139Z,77.33
2018-04-18T01:49:21.489Z,76.58
2018-04-18T01:51:49.127Z,75.71
2018-04-18T01:54:16.724Z,75.18
2018-04-18T01:56:44.371Z,74.68
2018-04-18T01:59:12.056Z,75.35
2018-04-18T02:01:39.742Z,75.70
2018-04-18T02:04:07.344Z,75.24
2018-04-18T02:06:35.069Z,75.05
2018-04-18T02:09:02.701Z,75.38
2018-04-18T02:11:30.433Z,75.11
2018-04-18T02:13:58.129Z,74.78
2018-04-18T02:16:25.772Z,74.47
2018-04-18T02:18:53.553Z,74.22
2018-04-18T02:21:21.235Z,74.22
2018-04-18T02:23:48.887Z,74.33
2018-04-18T02:26:16.490Z,74.29
2018-04-18T02:28:44.121Z,73.71
2018-04-18T02:31:12.252Z,74.01
2018-04-18T02:33:39.905Z,74.03
2018-04-18T02:36:07.520Z,73.94
2018-04-18T02:38:35.159Z,74.07
2018-04-18T02:41:02.850Z,74.16
2018-04-18T02:43:30.594Z,74.46
2018-04-18T02:45:58.215Z,75.39
2018-04-18T02:48:25.864Z,77.01
2018-04-18T02:50:53.473Z,78.25
2018-04-18T02:53:21.158Z,79.07
2018-04-18T02:55:48.829Z,78.79
2018-04-18T02:58:16.538Z,78.06
2018-04-18T03:00:44.160Z,77.42
2018-04-18T03:03:11.760Z,76.91
2018-04-18T03:05:39.445Z,76.65
2018-04-18T03:08:07.080Z,77.97
2018-04-18T03:10:34.872Z,78.58
2018-04-18T03:13:02.473Z,78.91
2018-04-18T03:15:30.152Z,78.56
2018-04-18T03:17:57.811Z,78.21
2018-04-18T03:20:25.529Z,77.66
2018-04-18T03:22:53.292Z,77.90
2018-04-18T03:25:21.046Z,77.89
2018-04-18T03:27:48.636Z,77.95
2018-04-18T03:30:16.304Z,78.12
2018-04-18T03:32:43.950Z,78.36
2018-04-18T03:35:11.633Z,78.19
2018-04-18T03:37:39.341Z,78.27
2018-04-18T03:40:06.954Z,77.99
2018-04-18T03:42:34.748Z,79.06
2018-04-18T03:45:02.526Z,79.59
2018-04-18T03:47:30.340Z,79.83
2018-04-18T03:49:57.990Z,79.73
2018-04-18T03:52:25.776Z,79.31
2018-04-18T03:54:53.497Z,79.58
2018-04-18T03:57:21.170Z,80.27
2018-04-18T03:59:49.431Z,80.28
2018-04-18T04:02:17.097Z,79.83
2018-04-18T04:04:44.775Z,79.51
2018-04-18T04:07:12.533Z,79.83
2018-04-18T04:09:40.189Z,80.35
2018-04-18T04:12:07.867Z,79.76
2018-04-18T04:14:35.479Z,79.15
2018-04-18T04:17:15.040Z,78.77
2018-04-18T04:19:54.437Z,78.73
2018-04-18T04:22:33.697Z,78.72
2018-04-18T04:25:01.338Z,78.55
2018-04-18T04:27:29.032Z,79.11
2018-04-18T04:29:56.727Z,79.37
2018-04-18T04:32:24.491Z,79.06
2018-04-18T04:34:52.140Z,79.38
2018-04-18T04:37:19.865Z,79.20
2018-04-18T04:39:47.636Z,79.14
2018-04-18T04:42:15.285Z,78.98
2018-04-18T04:44:43.018Z,78.90
2018-04-18T04:47:10.864Z,78.62
2018-04-18T04:49:38.703Z,78.74
2018-04-18T04:52:06.353Z,78.92
2018-04-18T04:54:34.076Z,78.70
2018-04-18T04:57:01.717Z,78.52
2018-04-18T04:59:29.580Z,78.60
2018-04-18T05:01:57.446Z,78.54
2018-04-18T05:04:25.086Z,78.53
2018-04-18T05:06:52.820Z,78.46
2018-04-18T05:09:20.482Z,78.82
2018-04-18T05:11:48.081Z,78.91
2018-04-18T05:14:15.801Z,78.54
2018-04-18T05:16:43.426Z,78.38
2018-04-18T05:19:11.097Z,78.39
2018-04-18T05:21:38.811Z,78.44
2018-04-18T05:24:06.501Z,78.63
2018-04-18T05:26:34.162Z,78.89
2018-04-18T05:29:01.846Z,79.04
2018-04-18T05:31:29.540Z,79.15
2018-04-18T05:33:57.222Z,78.89
2018-04-18T05:36:24.857Z,78.83
2018-04-18T05:38:52.533Z,78.43
2018-04-18T05:41:20.133Z,78.41
2018-04-18T05:43:47.792Z,78.58
2018-04-18T05:46:15.440Z,78.72
2018-04-18T05:48:43.171Z,78.97
2018-04-18T05:51:10.983Z,78.77
2018-04-18T05:53:38.708Z,78.62
2018-04-18T05:56:06.390Z,78.65
2018-04-18T05:58:34.045Z,78.48
2018-04-18T06:01:01.646Z,78.55
2018-04-18T06:03:29.312Z,78.08
2018-04-18T06:05:56.960Z,78.85
2018-04-18T06:08:24.580Z,79.03
2018-04-18T06:10:52.249Z,79.40
2018-04-18T06:13:19.851Z,79.28
2018-04-18T06:15:47.593Z,79.37
2018-04-18T06:18:15.421Z,79.04
2018-04-18T06:20:43.072Z,78.98
2018-04-18T06:23:10.876Z,78.74
2018-04-18T06:25:38.583Z,78.77
2018-04-18T06:28:06.245Z,78.75
2018-04-18T06:30:33.916Z,78.65
2018-04-18T06:33:01.686Z,78.88
2018-04-18T06:35:29.494Z,78.85
2018-04-18T06:37:57.142Z,78.99
2018-04-18T06:40:24.768Z,78.65
2018-04-18T06:42:52.450Z,78.20
2018-04-18T06:45:20.172Z,77.25
2018-04-18T06:47:47.801Z,77.06
2018-04-18T06:50:15.425Z,76.72
2018-04-18T06:52:43.166Z,75.99
2018-04-18T06:55:10.947Z,75.75
2018-04-18T06:57:38.737Z,76.10
2018-04-18T07:00:06.437Z,76.27
2018-04-18T07:02:34.124Z,76.25
2018-04-18T07:05:01.833Z,76.09
2018-04-18T07:07:29.460Z,74.98
2018-04-18T07:09:57.061Z,73.83
2018-04-18T07:12:24.725Z,74.05
2018-04-18T07:14:52.380Z,74.06
2018-04-18T07:17:20.156Z,73.77
2018-04-18T07:19:47.786Z,73.41
2018-04-18T07:22:15.508Z,73.74
2018-04-18T07:24:43.117Z,72.54
2018-04-18T07:27:10.818Z,72.92
2018-04-18T07:29:38.441Z,73.12
2018-04-18T07:32:06.201Z,72.78
2018-04-18T07:34:34.004Z,72.10
2018-04-18T07:37:01.671Z,72.22
2018-04-18T07:39:29.499Z,71.35
2018-04-18T07:41:57.159Z,71.39
2018-04-18T07:44:24.791Z,71.06
2018-04-18T07:46:52.488Z,71.03
2018-04-18T07:49:20.167Z,70.79
2018-04-18T07:51:47.779Z,70.88
2018-04-18T07:54:15.705Z,70.69
2018-04-18T07:56:43.328Z,69.97
2018-04-18T07:59:11.165Z,69.83
2018-04-18T08:01:38.906Z,68.82
2018-04-18T08:04:06.570Z,68.02
2018-04-18T08:06:34.177Z,67.62
2018-04-18T08:09:01.832Z,67.62
2018-04-18T08:11:29.586Z,66.88
2018-04-18T08:13:57.409Z,67.08
2018-04-18T08:16:25.041Z,67.17
2018-04-18T08:18:54.569Z,66.62
2018-04-18T08:21:22.168Z,66.49
2018-04-18T08:23:49.824Z,64.89
2018-04-18T08:26:17.456Z,64.55
2018-04-18T08:28:45.156Z,63.86
2018-04-18T08:31:13.571Z,64.70
2018-04-18T08:33:41.186Z,63.17
2018-04-18T08:36:08.861Z,62.85
2018-04-18T08:38:36.477Z,62.79
2018-04-18T08:41:04.116Z,62.74
2018-04-18T08:43:31.835Z,62.62
2018-04-18T08:45:59.469Z,63.08
2018-04-18T08:48:27.102Z,62.48
2018-04-18T08:50:54.766Z,61.32
2018-04-18T08:53:22.361Z,61.34
2018-04-18T08:55:50.024Z,61.73
2018-04-18T08:58:17.701Z,61.34
2018-04-18T09:00:45.347Z,61.93
2018-04-18T09:03:12.965Z,62.53
2018-04-18T09:05:40.688Z,61.75
2018-04-18T09:08:08.327Z,61.87
2018-04-18T09:10:36.064Z,61.60
2018-04-18T09:13:03.669Z,61.44
2018-04-18T09:15:31.333Z,60.92
2018-04-18T09:17:58.968Z,61.24
2018-04-18T09:20:26.572Z,60.17
2018-04-18T09:22:54.240Z,60.30
2018-04-18T09:25:21.842Z,60.88
2018-04-18T09:27:49.517Z,60.40
2018-04-18T09:30:17.178Z,58.92
2018-04-18T09:32:44.820Z,59.08
2018-04-18T09:35:12.417Z,58.68
2018-04-18T09:37:40.071Z,58.67
2018-04-18T09:40:07.671Z,58.69
2018-04-18T09:42:35.637Z,58.26
2018-04-18T09:45:03.259Z,58.51
2018-04-18T09:47:30.912Z,58.02
2018-04-18T09:49:58.519Z,57.56
2018-04-18T09:52:26.271Z,57.42
2018-04-18T09:54:53.918Z,56.60
2018-04-18T09:57:21.509Z,56.26
2018-04-18T09:59:49.141Z,56.29
2018-04-18T10:05:19.323Z,55.33
2018-04-18T10:07:46.949Z,54.84
2018-04-18T10:10:14.606Z,54.16
2018-04-18T10:12:42.339Z,54.43
2018-04-18T10:15:09.978Z,53.88
2018-04-18T10:17:37.600Z,53.14
2018-04-18T10:20:05.249Z,52.12
2018-04-18T10:22:32.857Z,52.46
2018-04-18T10:25:00.555Z,52.08
2018-04-18T10:27:28.231Z,51.90
2018-04-18T10:29:55.881Z,49.33
2018-04-18T10:32:23.490Z,49.51
2018-04-18T10:34:51.146Z,48.74
2018-04-18T10:37:18.777Z,47.81
2018-04-18T10:39:46.405Z,48.16
2018-04-18T10:42:14.017Z,47.97
2018-04-18T10:44:41.674Z,47.08
2018-04-18T10:47:09.290Z,46.79
2018-04-18T10:49:36.926Z,46.75
2018-04-18T10:52:04.615Z,44.59
2018-04-18T10:54:32.292Z,42.35
2018-04-18T10:56:59.906Z,42.06
2018-04-18T10:59:27.748Z,41.47
2018-04-18T11:01:55.353Z,41.18
2018-04-18T11:04:22.993Z,41.02
2018-04-18T11:06:50.815Z,40.81
2018-04-18T11:09:18.459Z,41.55
2018-04-18T11:11:46.269Z,41.73
2018-04-18T11:14:13.904Z,40.31
2018-04-18T11:16:41.513Z,39.62
2018-04-18T11:19:09.106Z,38.90
2018-04-18T11:21:36.769Z,38.85
2018-04-18T11:24:04.411Z,39.27
2018-04-18T11:26:32.045Z,40.44
2018-04-18T11:28:59.753Z,39.34
2018-04-18T11:31:27.405Z,38.96
2018-04-18T11:33:55.074Z,38.20
2018-04-18T11:36:22.800Z,38.52
2018-04-18T11:38:50.430Z,38.60
2018-04-18T11:41:18.084Z,37.63
2018-04-18T11:43:45.689Z,37.46
2018-04-18T11:46:13.353Z,37.56
2018-04-18T11:48:40.940Z,37.67
2018-04-18T11:51:08.613Z,37.58
2018-04-18T11:53:36.183Z,37.97
2018-04-18T11:56:03.805Z,36.99
2018-04-18T11:58:31.579Z,36.39
2018-04-18T12:00:59.201Z,36.13
2018-04-18T12:03:26.782Z,35.98
2018-04-18T12:05:54.594Z,35.37
2018-04-18T12:08:22.202Z,35.87
2018-04-18T12:10:49.806Z,35.84
2018-04-18T12:13:17.447Z,35.87
2018-04-18T12:15:45.041Z,34.75
2018-04-18T12:18:12.727Z,34.48
2018-04-18T12:20:40.329Z,34.25
2018-04-18T12:23:07.969Z,33.54
2018-04-18T12:25:35.599Z,34.33
2018-04-18T12:28:03.379Z,33.82
2018-04-18T12:30:31.031Z,34.00
2018-04-18T12:32:58.652Z,33.60
2018-04-18T12:35:26.271Z,33.23
2018-04-18T12:37:53.925Z,33.30
2018-04-18T12:40:21.533Z,32.94
2018-04-18T12:42:49.152Z,32.25
2018-04-18T12:45:16.786Z,32.08
2018-04-18T12:47:44.448Z,31.85
2018-04-18T12:50:12.077Z,32.07
2018-04-18T12:52:39.692Z,32.77
2018-04-18T12:55:07.364Z,31.63
2018-04-18T12:57:35.054Z,31.49
2018-04-18T13:00:02.640Z,31.33
2018-04-18T13:02:30.229Z,32.39
2018-04-18T13:04:57.894Z,31.26
2018-04-18T13:07:25.487Z,29.25
2018-04-18T13:09:53.117Z,29.04
2018-04-18T13:12:20.806Z,29.57
2018-04-18T13:14:48.396Z,29.85
2018-04-18T13:17:16.013Z,29.07
2018-04-18T13:19:43.649Z,28.77
2018-04-18T13:22:11.256Z,28.89
2018-04-18T13:24:38.850Z,28.59
2018-04-18T13:27:06.476Z,27.52
2018-04-18T13:29:34.077Z,27.86
2018-04-18T13:32:01.822Z,27.58
2018-04-18T13:34:29.458Z,27.10
2018-04-18T13:36:57.104Z,26.53
2018-04-18T13:39:24.708Z,26.82
2018-04-18T13:41:52.341Z,26.14
2018-04-18T13:44:19.951Z,27.11
2018-04-18T13:46:47.589Z,27.26
2018-04-18T13:49:15.177Z,26.93
2018-04-18T13:51:42.843Z,27.08
2018-04-18T13:54:10.458Z,27.66
2018-04-18T13:56:38.115Z,26.18
2018-04-18T13:59:05.712Z,25.32
2018-04-18T14:01:33.374Z,25.71
2018-04-18T14:04:00.998Z,24.59
2018-04-18T14:06:28.624Z,24.62
2018-04-18T14:08:56.229Z,24.03
2018-04-18T14:11:24.027Z,24.32
2018-04-18T14:13:51.637Z,24.12
2018-04-18T14:16:19.299Z,24.42
2018-04-18T14:18:46.907Z,25.79
2018-04-18T14:21:14.566Z,24.96
2018-04-18T14:23:42.368Z,23.79
2018-04-18T14:26:10.041Z,25.16
2018-04-18T14:28:37.642Z,25.23
2018-04-18T14:31:05.296Z,25.22
2018-04-18T14:33:32.950Z,24.73
2018-04-18T14:36:00.563Z,24.19
2018-04-18T14:38:28.207Z,24.17
2018-04-18T14:40:55.826Z,24.25
2018-04-18T14:43:23.489Z,24.66
2018-04-18T14:45:51.130Z,24.31
2018-04-18T14:48:18.758Z,23.34
2018-04-18T14:50:46.356Z,24.61
2018-04-18T14:53:14.068Z,22.30
2018-04-18T14:55:41.697Z,22.76
2018-04-18T14:58:09.327Z,22.60
2018-04-18T15:00:37.010Z,23.56
2018-04-18T15:03:04.633Z,24.61
2018-04-18T15:05:32.269Z,24.97
2018-04-18T15:08:00.072Z,24.43
2018-04-18T15:10:27.684Z,24.54
2018-04-18T15:12:55.305Z,24.25
2018-04-18T15:15:22.973Z,24.44
2018-04-18T15:17:50.580Z,23.62
2018-04-18T15:20:18.256Z,23.13
2018-04-18T15:22:45.909Z,22.31
2018-04-18T15:25:13.554Z,22.45
2018-04-18T15:27:41.152Z,23.17
2018-04-18T15:30:08.795Z,22.37
2018-04-18T15:32:36.388Z,22.38
2018-04-18T15:35:04.079Z,22.87
2018-04-18T15:37:31.718Z,23.25
2018-04-18T15:39:59.401Z,22.62
2018-04-18T15:42:27.425Z,22.92
2018-04-18T15:44:55.104Z,22.44
2018-04-18T15:47:22.956Z,22.07
2018-04-18T15:49:50.605Z,22.68
2018-04-18T15:52:18.242Z,21.56
2018-04-18T15:54:46.063Z,21.70
2018-04-18T15:57:13.690Z,22.63
2018-04-18T15:59:41.309Z,22.32
2018-04-18T16:02:09.050Z,22.41
2018-04-18T16:04:36.713Z,22.42
2018-04-18T16:07:04.298Z,22.20
2018-04-18T16:09:31.889Z,22.12
2018-04-18T16:11:59.521Z,22.86
2018-04-18T16:14:27.139Z,23.08
2018-04-18T16:16:54.797Z,22.71
2018-04-18T16:19:22.411Z,22.56
2018-04-18T16:21:50.049Z,23.29
2018-04-18T16:24:17.749Z,23.62
2018-04-18T16:26:45.459Z,24.04
2018-04-18T16:29:24.743Z,24.77
2018-04-18T16:31:52.387Z,24.09
2018-04-18T16:34:19.978Z,24.57
2018-04-18T16:36:47.639Z,25.09
2018-04-18T16:39:15.245Z,26.51
2018-04-18T16:41:42.886Z,25.93
2018-04-18T16:44:10.517Z,25.71
2018-04-18T16:46:38.183Z,25.60
2018-04-18T16:49:06.204Z,25.11
2018-04-18T16:51:33.861Z,25.28
2018-04-18T16:54:01.493Z,25.28
2018-04-18T16:56:29.085Z,25.69
2018-04-18T16:58:56.754Z,26.03
2018-04-18T17:01:24.361Z,26.38
2018-04-18T17:03:52.106Z,26.61
2018-04-18T17:06:19.724Z,26.68
2018-04-18T17:08:47.369Z,26.72
2018-04-18T17:11:14.964Z,27.30
2018-04-18T17:13:42.664Z,27.56
2018-04-18T17:16:10.373Z,27.54
2018-04-18T17:18:38.021Z,27.83
2018-04-18T17:21:05.624Z,28.79
2018-04-18T17:23:33.420Z,28.31
2018-04-18T17:26:01.039Z,28.53
2018-04-18T17:28:28.662Z,29.18
2018-04-18T17:30:56.252Z,32.30
2018-04-18T17:33:23.968Z,30.78
2018-04-18T17:35:51.542Z,30.29
2018-04-18T17:38:19.133Z,29.55
2018-04-18T17:40:46.758Z,30.20
2018-04-18T17:43:14.368Z,30.41
2018-04-18T17:45:42.029Z,31.67
2018-04-18T17:48:09.639Z,32.29
2018-04-18T17:50:37.272Z,32.96
2018-04-18T17:53:04.962Z,31.46
2018-04-18T17:55:32.617Z,31.63
2018-04-18T17:58:00.236Z,31.75
2018-04-18T18:00:27.915Z,33.53
2018-04-18T18:02:55.508Z,32.24
2018-04-18T18:05:23.226Z,32.02
2018-04-18T18:07:50.832Z,32.47
2018-04-18T18:10:18.466Z,32.97
2018-04-18T18:12:46.084Z,32.92
2018-04-18T18:15:13.713Z,32.85
2018-04-18T18:17:41.349Z,33.11
2018-04-18T18:20:09.005Z,32.54
2018-04-18T18:22:36.673Z,32.85
2018-04-18T18:25:04.315Z,32.31
2018-04-18T18:27:31.937Z,32.27
2018-04-18T18:29:59.765Z,32.07
2018-04-18T18:32:27.368Z,31.59
2018-04-18T18:34:55.081Z,31.79
2018-04-18T18:37:22.715Z,32.02
2018-04-18T18:39:50.358Z,32.22
2018-04-18T18:42:19.061Z,32.21
2018-04-18T18:44:48.376Z,32.82
2018-04-18T18:47:15.983Z,32.87
2018-04-18T18:49:43.599Z,32.40
2018-04-18T18:52:11.258Z,33.10
2018-04-18T18:54:43.595Z,33.72
2018-04-18T18:57:11.272Z,34.28
2018-04-18T18:59:38.881Z,34.43
2018-04-18T19:02:06.497Z,34.96
2018-04-18T19:04:34.100Z,36.10
2018-04-18T19:07:01.737Z,37.59
2018-04-18T19:09:29.340Z,38.49
2018-04-18T19:11:56.985Z,39.15
2018-04-18T19:14:24.596Z,38.52
2018-04-18T19:16:52.233Z,39.43
2018-04-18T19:19:19.849Z,39.64
2018-04-18T19:21:47.490Z,40.31
2018-04-18T19:24:15.122Z,40.69
2018-04-18T19:26:42.767Z,41.56
2018-04-18T19:29:10.395Z,41.37
2018-04-18T19:31:38.035Z,41.44
2018-04-18T19:34:05.689Z,42.17
2018-04-18T19:36:33.432Z,41.70
2018-04-18T19:39:01.047Z,42.05
2018-04-18T19:41:28.675Z,42.87
2018-04-18T19:43:56.303Z,42.93
2018-04-18T19:46:24.080Z,42.12
2018-04-18T19:48:51.713Z,41.88
2018-04-18T19:51:19.344Z,42.17
2018-04-18T19:53:47.057Z,42.02
2018-04-18T19:56:14.673Z,42.76
2018-04-18T19:58:42.369Z,43.21
2018-04-18T20:01:09.971Z,42.43
2018-04-18T20:03:37.613Z,43.67
2018-04-18T20:06:05.258Z,44.31
2018-04-18T20:08:32.906Z,43.85
2018-04-18T20:11:00.520Z,43.34
2018-04-18T20:13:28.155Z,43.39
2018-04-18T20:15:55.761Z,43.80
2018-04-18T20:18:23.413Z,44.95
2018-04-18T20:20:51.026Z,44.79
2018-04-18T20:23:18.647Z,44.31
2018-04-18T20:25:46.334Z,44.41
2018-04-18T20:28:13.977Z,45.14
2018-04-18T20:30:41.670Z,45.91
2018-04-18T20:33:09.301Z,46.09
2018-04-18T20:35:36.944Z,45.63
2018-04-18T20:38:04.763Z,45.31
2018-04-18T20:40:32.482Z,45.39
2018-04-18T20:43:00.098Z,45.58
2018-04-18T20:45:27.740Z,45.52
2018-04-18T20:47:55.341Z,45.56
2018-04-18T20:50:22.986Z,45.41
2018-04-18T20:52:50.621Z,46.10
2018-04-18T20:55:18.344Z,46.99
2018-04-18T20:57:45.950Z,47.67
2018-04-18T21:00:13.575Z,48.46
2018-04-18T21:02:41.194Z,49.07
2018-04-18T21:05:08.861Z,49.96
2018-04-18T21:07:36.429Z,51.10
2018-04-18T21:10:04.026Z,53.73
2018-04-18T21:12:31.658Z,53.64
2018-04-18T21:14:59.258Z,52.97
2018-04-18T21:17:26.905Z,53.28
2018-04-18T21:19:54.494Z,53.74
2018-04-18T21:22:22.145Z,53.72
2018-04-18T21:24:49.736Z,55.08
2018-04-18T21:27:17.373Z,54.60
2018-04-18T21:29:44.969Z,53.77
2018-04-18T21:32:12.625Z,53.87
2018-04-18T21:34:40.243Z,53.87
2018-04-18T21:37:07.959Z,54.06
2018-04-18T21:39:35.552Z,54.74
2018-04-18T21:42:03.208Z,55.18
2018-04-18T21:44:30.803Z,55.63
2018-04-18T21:46:58.392Z,56.41
2018-04-18T21:49:26.077Z,57.19
2018-04-18T21:51:53.710Z,57.16
2018-04-18T21:54:21.348Z,57.23
2018-04-18T21:56:48.941Z,57.14
2018-04-18T21:59:16.574Z,57.00
2018-04-18T22:01:44.197Z,56.83
2018-04-18T22:04:11.868Z,56.88
2018-04-18T22:06:39.470Z,56.67
2018-04-18T22:09:07.153Z,55.81
2018-04-18T22:11:34.754Z,55.72
2018-04-18T22:14:02.420Z,55.73
2018-04-18T22:16:30.002Z,55.83
2018-04-18T22:18:57.633Z,55.28
2018-04-18T22:21:25.223Z,55.13
2018-04-18T22:23:52.874Z,54.65
2018-04-18T22:26:20.453Z,54.20
2018-04-18T22:28:48.087Z,53.71
2018-04-18T22:31:15.757Z,53.92
2018-04-18T22:33:43.396Z,54.28
2018-04-18T22:36:10.994Z,54.34
2018-04-18T22:38:38.632Z,54.68
2018-04-18T22:41:06.229Z,55.22
2018-04-18T22:43:33.869Z,55.88
2018-04-18T22:46:01.509Z,55.71
2018-04-18T22:48:29.106Z,54.66
2018-04-18T22:50:56.749Z,53.80
2018-04-18T22:53:24.339Z,53.50
2018-04-18T22:55:51.992Z,53.30
2018-04-18T22:58:19.644Z,53.82
2018-04-18T23:00:47.266Z,54.28
2018-04-18T23:03:14.865Z,54.08
2018-04-18T23:05:42.510Z,52.52
2018-04-18T23:08:10.095Z,53.17
2018-04-18T23:10:37.737Z,54.19
2018-04-18T23:13:05.345Z,54.65
2018-04-18T23:15:32.964Z,54.90
2018-04-18T23:18:00.621Z,54.70
2018-04-18T23:20:28.248Z,54.88
2018-04-18T23:22:55.859Z,55.28
2018-04-18T23:25:23.569Z,54.96
2018-04-18T23:27:51.156Z,55.17
2018-04-18T23:30:18.813Z,55.45
2018-04-18T23:32:46.405Z,55.61
2018-04-18T23:35:14.001Z,55.71
2018-04-18T23:37:41.645Z,56.08
2018-04-18T23:40:09.303Z,56.27
2018-04-18T23:42:37.060Z,56.72
2018-04-18T23:45:04.603Z,56.36
2018-04-18T23:47:32.227Z,56.27
2018-04-18T23:49:59.837Z,56.51
2018-04-18T23:52:27.474Z,56.56
2018-04-18T23:54:55.072Z,57.12
2018-04-18T23:57:22.744Z,57.59
2018-04-18T23:59:50.349Z,57.88
